sensor_id;sensor_type;location;lat;lon;timestamp;pressure;altitude;pressure_sealevel;temperature;humidity
40954;BME280;26686;50.130;8.710;2023-03-21T00:03:03;100397.66;;;11.77;55.84
40954;BME280;26686;50.130;8.710;2023-03-21T00:08:04;100390.38;;;11.79;56.47
40954;BME280;26686;50.130;8.710;2023-03-21T00:13:06;100389.41;;;11.80;56.46
40954;BME280;26686;50.130;8.710;2023-03-21T00:18:07;100383.59;;;11.75;56.58
40954;BME280;26686;50.130;8.710;2023-03-21T00:23:11;100377.94;;;11.68;56.69
40954;BME280;26686;50.130;8.710;2023-03-21T00:28:13;100370.78;;;11.69;56.83
40954;BME280;26686;50.130;8.710;2023-03-21T00:33:14;100367.53;;;11.65;56.81
40954;BME280;26686;50.130;8.710;2023-03-21T00:38:23;100369.72;;;11.60;56.70
40954;BME280;26686;50.130;8.710;2023-03-21T00:43:25;100359.44;;;11.56;56.90
40954;BME280;26686;50.130;8.710;2023-03-21T00:48:30;100357.53;;;11.46;57.05
40954;BME280;26686;50.130;8.710;2023-03-21T00:53:32;100344.84;;;11.39;56.97
40954;BME280;26686;50.130;8.710;2023-03-21T00:58:33;100350.31;;;11.37;57.25
40954;BME280;26686;50.130;8.710;2023-03-21T01:03:34;100323.94;;;11.23;56.94
40954;BME280;26686;50.130;8.710;2023-03-21T01:08:42;100333.88;;;11.32;57.15
40954;BME280;26686;50.130;8.710;2023-03-21T01:13:53;100323.09;;;11.22;57.56
40954;BME280;26686;50.130;8.710;2023-03-21T01:19:08;100334.72;;;11.21;57.64
40954;BME280;26686;50.130;8.710;2023-03-21T01:24:25;100321.66;;;11.18;57.75
40954;BME280;26686;50.130;8.710;2023-03-21T01:29:26;100330.84;;;11.25;57.51
40954;BME280;26686;50.130;8.710;2023-03-21T01:34:28;100335.34;;;11.25;57.78
40954;BME280;26686;50.130;8.710;2023-03-21T01:39:30;100330.63;;;11.17;57.67
40954;BME280;26686;50.130;8.710;2023-03-21T01:50:15;100320.50;;;11.00;58.23
40954;BME280;26686;50.130;8.710;2023-03-21T01:55:17;100321.47;;;10.99;58.07
40954;BME280;26686;50.130;8.710;2023-03-21T02:00:19;100319.31;;;10.92;58.16
40954;BME280;26686;50.130;8.710;2023-03-21T02:05:30;100309.84;;;10.88;58.20
40954;BME280;26686;50.130;8.710;2023-03-21T02:10:34;100309.13;;;10.98;58.29
40954;BME280;26686;50.130;8.710;2023-03-21T02:15:38;100300.78;;;10.91;58.56
40954;BME280;26686;50.130;8.710;2023-03-21T02:21:14;100302.38;;;10.93;58.55
40954;BME280;26686;50.130;8.710;2023-03-21T02:31:52;100289.56;;;10.76;58.71
40954;BME280;26686;50.130;8.710;2023-03-21T02:37:19;100296.00;;;10.73;58.87
40954;BME280;26686;50.130;8.710;2023-03-21T02:42:42;100281.34;;;10.68;58.81
40954;BME280;26686;50.130;8.710;2023-03-21T02:48:05;100271.22;;;10.61;59.45
40954;BME280;26686;50.130;8.710;2023-03-21T02:53:15;100281.72;;;10.63;59.30
40954;BME280;26686;50.130;8.710;2023-03-21T02:58:20;100282.34;;;10.55;59.42
40954;BME280;26686;50.130;8.710;2023-03-21T03:03:23;100274.69;;;10.51;59.57
40954;BME280;26686;50.130;8.710;2023-03-21T03:19:38;100279.44;;;10.47;60.04
40954;BME280;26686;50.130;8.710;2023-03-21T03:25:00;100270.25;;;10.40;60.06
40954;BME280;26686;50.130;8.710;2023-03-21T03:30:24;100269.25;;;10.30;60.15
40954;BME280;26686;50.130;8.710;2023-03-21T03:35:42;100258.84;;;10.15;60.69
40954;BME280;26686;50.130;8.710;2023-03-21T03:40:54;100235.16;;;10.01;60.71
40954;BME280;26686;50.130;8.710;2023-03-21T03:51:41;100252.91;;;10.12;61.04
40954;BME280;26686;50.130;8.710;2023-03-21T03:56:44;100253.16;;;10.08;60.88
40954;BME280;26686;50.130;8.710;2023-03-21T04:01:47;100257.16;;;10.14;60.98
40954;BME280;26686;50.130;8.710;2023-03-21T04:06:49;100257.66;;;10.08;61.03
40954;BME280;26686;50.130;8.710;2023-03-21T04:11:51;100256.44;;;10.01;61.28
40954;BME280;26686;50.130;8.710;2023-03-21T04:16:53;100242.41;;;9.99;61.19
40954;BME280;26686;50.130;8.710;2023-03-21T04:21:54;100242.41;;;10.10;61.14
40954;BME280;26686;50.130;8.710;2023-03-21T04:26:56;100246.41;;;10.16;60.90
40954;BME280;26686;50.130;8.710;2023-03-21T04:31:57;100229.34;;;10.07;61.02
40954;BME280;26686;50.130;8.710;2023-03-21T04:36:59;100231.88;;;10.08;61.20
40954;BME280;26686;50.130;8.710;2023-03-21T04:42:01;100237.31;;;10.07;61.06
40954;BME280;26686;50.130;8.710;2023-03-21T04:47:02;100238.19;;;10.07;60.90
40954;BME280;26686;50.130;8.710;2023-03-21T04:52:04;100230.94;;;10.09;61.38
40954;BME280;26686;50.130;8.710;2023-03-21T04:57:06;100233.94;;;10.16;61.18
40954;BME280;26686;50.130;8.710;2023-03-21T05:02:08;100249.44;;;10.22;60.58
40954;BME280;26686;50.130;8.710;2023-03-21T05:07:09;100250.88;;;10.26;60.51
40954;BME280;26686;50.130;8.710;2023-03-21T05:12:11;100251.09;;;10.23;60.30
40954;BME280;26686;50.130;8.710;2023-03-21T05:17:12;100252.09;;;10.11;60.70
40954;BME280;26686;50.130;8.710;2023-03-21T05:22:15;100243.97;;;10.13;61.10
40954;BME280;26686;50.130;8.710;2023-03-21T05:27:20;100240.47;;;10.12;60.96
40954;BME280;26686;50.130;8.710;2023-03-21T05:32:37;100226.44;;;10.10;61.12
40954;BME280;26686;50.130;8.710;2023-03-21T05:37:38;100234.41;;;10.10;61.18
40954;BME280;26686;50.130;8.710;2023-03-21T05:42:40;100234.78;;;10.05;61.72
40954;BME280;26686;50.130;8.710;2023-03-21T05:47:42;100235.03;;;10.14;61.45
40954;BME280;26686;50.130;8.710;2023-03-21T05:52:43;100228.63;;;10.16;61.64
40954;BME280;26686;50.130;8.710;2023-03-21T05:57:44;100237.56;;;10.26;61.57
40954;BME280;26686;50.130;8.710;2023-03-21T06:02:46;100231.53;;;10.24;61.51
40954;BME280;26686;50.130;8.710;2023-03-21T06:07:48;100224.75;;;10.32;61.49
40954;BME280;26686;50.130;8.710;2023-03-21T06:12:50;100236.84;;;10.47;61.18
40954;BME280;26686;50.130;8.710;2023-03-21T06:17:51;100231.19;;;10.40;61.61
40954;BME280;26686;50.130;8.710;2023-03-21T06:22:53;100233.47;;;10.34;61.58
40954;BME280;26686;50.130;8.710;2023-03-21T06:27:54;100235.03;;;10.25;61.83
40954;BME280;26686;50.130;8.710;2023-03-21T06:32:56;100244.81;;;10.24;62.09
40954;BME280;26686;50.130;8.710;2023-03-21T06:37:57;100242.03;;;10.26;62.47
40954;BME280;26686;50.130;8.710;2023-03-21T06:43:00;100244.72;;;10.49;62.07
40954;BME280;26686;50.130;8.710;2023-03-21T06:48:01;100251.81;;;10.71;61.66
40954;BME280;26686;50.130;8.710;2023-03-21T06:53:05;100250.34;;;10.78;61.15
40954;BME280;26686;50.130;8.710;2023-03-21T06:58:15;100242.56;;;10.98;60.60
40954;BME280;26686;50.130;8.710;2023-03-21T07:03:17;100235.47;;;11.08;60.47
40954;BME280;26686;50.130;8.710;2023-03-21T07:08:20;100249.69;;;11.29;59.75
40954;BME280;26686;50.130;8.710;2023-03-21T07:13:22;100238.59;;;11.45;58.79
40954;BME280;26686;50.130;8.710;2023-03-21T07:18:24;100248.06;;;11.80;58.28
40954;BME280;26686;50.130;8.710;2023-03-21T07:23:26;100249.63;;;12.04;56.64
40954;BME280;26686;50.130;8.710;2023-03-21T07:28:28;100251.34;;;12.15;56.57
40954;BME280;26686;50.130;8.710;2023-03-21T07:33:32;100252.53;;;12.22;56.46
40954;BME280;26686;50.130;8.710;2023-03-21T07:38:33;100250.56;;;12.24;55.85
40954;BME280;26686;50.130;8.710;2023-03-21T07:43:35;100246.19;;;12.23;55.40
40954;BME280;26686;50.130;8.710;2023-03-21T07:48:39;100259.16;;;12.37;55.75
40954;BME280;26686;50.130;8.710;2023-03-21T07:53:41;100269.16;;;12.45;55.46
40954;BME280;26686;50.130;8.710;2023-03-21T07:58:44;100257.31;;;12.28;55.99
40954;BME280;26686;50.130;8.710;2023-03-21T08:03:45;100253.28;;;12.44;55.58
40954;BME280;26686;50.130;8.710;2023-03-21T08:08:48;100254.84;;;12.46;55.96
40954;BME280;26686;50.130;8.710;2023-03-21T08:13:49;100250.25;;;12.58;56.04
40954;BME280;26686;50.130;8.710;2023-03-21T08:18:51;100251.25;;;12.77;56.29
40954;BME280;26686;50.130;8.710;2023-03-21T08:23:53;100242.72;;;12.93;56.49
40954;BME280;26686;50.130;8.710;2023-03-21T08:28:54;100242.47;;;13.15;55.82
40954;BME280;26686;50.130;8.710;2023-03-21T08:33:56;100243.19;;;13.47;55.04
40954;BME280;26686;50.130;8.710;2023-03-21T08:38:59;100244.81;;;13.67;54.32
40954;BME280;26686;50.130;8.710;2023-03-21T08:44:05;100245.59;;;13.97;52.51
40954;BME280;26686;50.130;8.710;2023-03-21T08:49:07;100243.47;;;14.01;52.82
40954;BME280;26686;50.130;8.710;2023-03-21T08:54:17;100236.31;;;13.91;51.74
40954;BME280;26686;50.130;8.710;2023-03-21T08:59:18;100240.03;;;13.71;52.94
40954;BME280;26686;50.130;8.710;2023-03-21T09:04:20;100237.22;;;13.72;52.00
40954;BME280;26686;50.130;8.710;2023-03-21T09:09:22;100240.19;;;13.69;51.77
40954;BME280;26686;50.130;8.710;2023-03-21T09:14:24;100238.31;;;13.79;52.09
40954;BME280;26686;50.130;8.710;2023-03-21T09:19:30;100242.38;;;13.84;51.90
40954;BME280;26686;50.130;8.710;2023-03-21T09:24:32;100237.03;;;13.84;51.83
40954;BME280;26686;50.130;8.710;2023-03-21T09:29:33;100242.97;;;13.77;51.68
40954;BME280;26686;50.130;8.710;2023-03-21T09:34:35;100246.91;;;13.73;51.72
40954;BME280;26686;50.130;8.710;2023-03-21T09:39:41;100248.59;;;13.84;51.85
40954;BME280;26686;50.130;8.710;2023-03-21T09:45:06;100243.38;;;13.83;52.41
40954;BME280;26686;50.130;8.710;2023-03-21T09:50:14;100249.59;;;13.73;51.37
40954;BME280;26686;50.130;8.710;2023-03-21T09:55:29;100242.72;;;13.61;52.02
40954;BME280;26686;50.130;8.710;2023-03-21T10:00:37;100234.41;;;13.64;52.26
40954;BME280;26686;50.130;8.710;2023-03-21T10:05:40;100240.88;;;13.81;52.06
40954;BME280;26686;50.130;8.710;2023-03-21T10:10:50;100238.28;;;13.99;51.89
40954;BME280;26686;50.130;8.710;2023-03-21T10:15:56;100235.16;;;14.04;51.93
40954;BME280;26686;50.130;8.710;2023-03-21T10:20:59;100229.75;;;14.13;51.77
40954;BME280;26686;50.130;8.710;2023-03-21T10:26:04;100229.97;;;14.30;51.54
40954;BME280;26686;50.130;8.710;2023-03-21T10:31:08;100228.47;;;14.45;51.37
40954;BME280;26686;50.130;8.710;2023-03-21T10:36:25;100220.66;;;14.34;50.87
40954;BME280;26686;50.130;8.710;2023-03-21T10:41:28;100225.88;;;14.26;51.15
40954;BME280;26686;50.130;8.710;2023-03-21T10:46:29;100221.03;;;14.11;52.01
40954;BME280;26686;50.130;8.710;2023-03-21T10:51:36;100226.63;;;14.18;51.77
40954;BME280;26686;50.130;8.710;2023-03-21T10:56:52;100218.75;;;14.17;52.22
40954;BME280;26686;50.130;8.710;2023-03-21T11:01:56;100223.56;;;14.13;53.57
40954;BME280;26686;50.130;8.710;2023-03-21T11:07:02;100233.81;;;14.18;54.58
40954;BME280;26686;50.130;8.710;2023-03-21T11:12:13;100223.72;;;14.11;57.52
40954;BME280;26686;50.130;8.710;2023-03-21T11:22:20;100211.78;;;13.96;61.10
40954;BME280;26686;50.130;8.710;2023-03-21T11:27:23;100218.53;;;14.00;62.85
40954;BME280;26686;50.130;8.710;2023-03-21T11:32:36;100216.56;;;14.02;62.42
40954;BME280;26686;50.130;8.710;2023-03-21T11:37:42;100217.88;;;13.88;63.89
40954;BME280;26686;50.130;8.710;2023-03-21T11:42:57;100214.06;;;13.91;65.13
40954;BME280;26686;50.130;8.710;2023-03-21T11:48:01;100210.41;;;13.92;66.00
40954;BME280;26686;50.130;8.710;2023-03-21T11:58:48;100190.16;;;13.79;65.99
40954;BME280;26686;50.130;8.710;2023-03-21T12:09:37;100201.56;;;13.82;67.79
40954;BME280;26686;50.130;8.710;2023-03-21T12:20:52;100195.78;;;13.76;68.58
40954;BME280;26686;50.130;8.710;2023-03-21T12:26:17;100184.34;;;13.94;69.01
40954;BME280;26686;50.130;8.710;2023-03-21T12:37:00;100170.75;;;14.33;68.63
40954;BME280;26686;50.130;8.710;2023-03-21T12:47:25;100151.78;;;13.99;66.69
40954;BME280;26686;50.130;8.710;2023-03-21T12:52:34;100138.63;;;13.77;67.22
40954;BME280;26686;50.130;8.710;2023-03-21T12:57:41;100134.72;;;13.72;68.23
40954;BME280;26686;50.130;8.710;2023-03-21T13:03:00;100137.13;;;13.65;68.75
40954;BME280;26686;50.130;8.710;2023-03-21T13:19:04;100129.47;;;13.23;65.02
40954;BME280;26686;50.130;8.710;2023-03-21T13:24:25;100128.06;;;13.19;66.57
40954;BME280;26686;50.130;8.710;2023-03-21T13:29:41;100124.44;;;13.20;67.83
40954;BME280;26686;50.130;8.710;2023-03-21T13:34:53;100112.59;;;13.22;67.26
40954;BME280;26686;50.130;8.710;2023-03-21T13:40:03;100107.81;;;13.26;67.42
40954;BME280;26686;50.130;8.710;2023-03-21T13:45:25;100111.50;;;13.15;66.50
40954;BME280;26686;50.130;8.710;2023-03-21T13:50:51;100112.34;;;13.16;67.05
40954;BME280;26686;50.130;8.710;2023-03-21T13:56:01;100104.19;;;13.07;68.65
40954;BME280;26686;50.130;8.710;2023-03-21T14:12:44;100096.16;;;13.07;69.82
40954;BME280;26686;50.130;8.710;2023-03-21T14:17:59;100077.59;;;13.06;70.15
40954;BME280;26686;50.130;8.710;2023-03-21T14:23:16;100072.97;;;13.08;69.86
40954;BME280;26686;50.130;8.710;2023-03-21T14:28:25;100073.56;;;13.02;72.66
40954;BME280;26686;50.130;8.710;2023-03-21T14:38:38;100049.94;;;12.97;72.34
40954;BME280;26686;50.130;8.710;2023-03-21T14:43:40;100054.56;;;12.95;72.15
40954;BME280;26686;50.130;8.710;2023-03-21T14:48:43;100046.72;;;12.84;71.04
40954;BME280;26686;50.130;8.710;2023-03-21T14:53:44;100023.56;;;12.75;71.65
40954;BME280;26686;50.130;8.710;2023-03-21T14:58:46;100031.41;;;12.66;74.48
40954;BME280;26686;50.130;8.710;2023-03-21T15:03:49;100017.50;;;12.72;74.66
40954;BME280;26686;50.130;8.710;2023-03-21T15:08:57;100027.59;;;12.79;74.27
40954;BME280;26686;50.130;8.710;2023-03-21T15:14:02;100031.53;;;12.84;74.95
40954;BME280;26686;50.130;8.710;2023-03-21T15:19:05;100027.59;;;12.88;73.67
40954;BME280;26686;50.130;8.710;2023-03-21T15:24:14;100034.75;;;12.88;74.38
40954;BME280;26686;50.130;8.710;2023-03-21T15:29:17;100018.31;;;12.83;73.58
40954;BME280;26686;50.130;8.710;2023-03-21T15:39:22;100013.13;;;12.91;73.63
40954;BME280;26686;50.130;8.710;2023-03-21T15:44:26;100001.41;;;12.92;73.28
40954;BME280;26686;50.130;8.710;2023-03-21T15:49:32;99998.75;;;12.92;73.55
40954;BME280;26686;50.130;8.710;2023-03-21T15:54:47;99990.50;;;12.85;74.24
40954;BME280;26686;50.130;8.710;2023-03-21T16:00:06;99996.25;;;12.81;75.57
40954;BME280;26686;50.130;8.710;2023-03-21T16:05:23;100010.03;;;12.86;76.37
40954;BME280;26686;50.130;8.710;2023-03-21T16:10:35;100006.22;;;12.88;75.54
40954;BME280;26686;50.130;8.710;2023-03-21T16:15:38;100002.16;;;12.84;74.76
40954;BME280;26686;50.130;8.710;2023-03-21T16:20:44;99994.72;;;12.78;76.02
40954;BME280;26686;50.130;8.710;2023-03-21T16:25:46;99985.16;;;12.76;76.12
40954;BME280;26686;50.130;8.710;2023-03-21T16:30:48;99981.94;;;12.72;76.48
40954;BME280;26686;50.130;8.710;2023-03-21T16:35:50;99981.38;;;12.68;77.06
40954;BME280;26686;50.130;8.710;2023-03-21T16:40:52;99981.38;;;12.68;77.70
40954;BME280;26686;50.130;8.710;2023-03-21T16:45:54;99968.44;;;12.64;78.29
40954;BME280;26686;50.130;8.710;2023-03-21T16:50:55;99973.78;;;12.64;79.07
40954;BME280;26686;50.130;8.710;2023-03-21T16:55:57;99987.44;;;12.61;79.28
40954;BME280;26686;50.130;8.710;2023-03-21T17:01:02;99980.72;;;12.57;79.61
40954;BME280;26686;50.130;8.710;2023-03-21T17:06:04;99986.19;;;12.55;79.91
40954;BME280;26686;50.130;8.710;2023-03-21T17:11:10;99987.31;;;12.52;80.44
40954;BME280;26686;50.130;8.710;2023-03-21T17:16:13;99966.38;;;12.48;81.10
40954;BME280;26686;50.130;8.710;2023-03-21T17:21:18;99964.69;;;12.47;81.06
40954;BME280;26686;50.130;8.710;2023-03-21T17:26:25;99952.63;;;12.43;80.75
40954;BME280;26686;50.130;8.710;2023-03-21T17:31:32;99949.09;;;12.32;82.40
40954;BME280;26686;50.130;8.710;2023-03-21T17:36:37;99937.06;;;12.28;82.79
40954;BME280;26686;50.130;8.710;2023-03-21T17:41:40;99946.72;;;12.29;82.71
40954;BME280;26686;50.130;8.710;2023-03-21T17:46:42;99932.84;;;12.16;82.92
40954;BME280;26686;50.130;8.710;2023-03-21T17:51:44;99955.31;;;12.23;83.75
40954;BME280;26686;50.130;8.710;2023-03-21T17:56:47;99964.59;;;12.19;83.78
40954;BME280;26686;50.130;8.710;2023-03-21T18:01:48;99918.25;;;12.00;84.47
40954;BME280;26686;50.130;8.710;2023-03-21T18:06:50;99956.16;;;12.14;84.50
40954;BME280;26686;50.130;8.710;2023-03-21T18:11:51;99958.97;;;12.02;85.06
40954;BME280;26686;50.130;8.710;2023-03-21T18:16:55;99964.47;;;12.01;85.63
40954;BME280;26686;50.130;8.710;2023-03-21T18:21:57;99968.25;;;11.98;85.49
40954;BME280;26686;50.130;8.710;2023-03-21T18:26:59;99974.53;;;11.97;85.65
40954;BME280;26686;50.130;8.710;2023-03-21T18:32:01;99965.16;;;12.03;85.40
40954;BME280;26686;50.130;8.710;2023-03-21T18:37:07;99974.72;;;12.06;85.16
40954;BME280;26686;50.130;8.710;2023-03-21T18:42:13;99969.34;;;11.96;85.44
40954;BME280;26686;50.130;8.710;2023-03-21T18:47:21;99970.19;;;11.96;85.50
40954;BME280;26686;50.130;8.710;2023-03-21T18:52:23;99979.31;;;12.03;84.97
40954;BME280;26686;50.130;8.710;2023-03-21T18:57:27;99986.75;;;12.10;85.14
40954;BME280;26686;50.130;8.710;2023-03-21T19:02:40;99985.09;;;12.09;85.31
40954;BME280;26686;50.130;8.710;2023-03-21T19:07:48;99989.00;;;12.14;84.64
40954;BME280;26686;50.130;8.710;2023-03-21T19:12:52;99988.75;;;12.08;85.25
40954;BME280;26686;50.130;8.710;2023-03-21T19:17:55;99973.56;;;12.08;85.20
40954;BME280;26686;50.130;8.710;2023-03-21T19:23:16;99976.22;;;12.08;85.59
40954;BME280;26686;50.130;8.710;2023-03-21T19:28:19;99980.03;;;12.06;85.74
40954;BME280;26686;50.130;8.710;2023-03-21T19:33:21;99968.25;;;11.98;85.61
40954;BME280;26686;50.130;8.710;2023-03-21T19:38:22;99972.03;;;11.96;86.12
40954;BME280;26686;50.130;8.710;2023-03-21T19:43:24;99970.47;;;11.93;86.43
40954;BME280;26686;50.130;8.710;2023-03-21T19:48:33;99969.06;;;11.89;86.81
40954;BME280;26686;50.130;8.710;2023-03-21T19:53:37;99967.34;;;11.88;87.04
40954;BME280;26686;50.130;8.710;2023-03-21T19:58:42;99970.03;;;11.88;86.99
40954;BME280;26686;50.130;8.710;2023-03-21T20:03:44;99981.38;;;11.90;86.70
40954;BME280;26686;50.130;8.710;2023-03-21T20:08:46;99975.50;;;11.87;87.08
40954;BME280;26686;50.130;8.710;2023-03-21T20:14:08;99976.31;;;11.87;87.49
40954;BME280;26686;50.130;8.710;2023-03-21T20:19:11;99978.16;;;11.87;87.42
40954;BME280;26686;50.130;8.710;2023-03-21T20:24:14;99988.00;;;11.86;87.62
40954;BME280;26686;50.130;8.710;2023-03-21T20:29:16;99990.97;;;11.93;87.55
40954;BME280;26686;50.130;8.710;2023-03-21T20:34:38;99989.84;;;11.95;87.40
40954;BME280;26686;50.130;8.710;2023-03-21T20:39:40;99970.47;;;11.93;87.05
40954;BME280;26686;50.130;8.710;2023-03-21T20:44:42;99990.84;;;11.94;87.23
40954;BME280;26686;50.130;8.710;2023-03-21T20:50:01;99968.03;;;11.90;86.95
40954;BME280;26686;50.130;8.710;2023-03-21T20:55:04;99960.31;;;11.87;87.03
40954;BME280;26686;50.130;8.710;2023-03-21T21:00:10;99964.66;;;11.78;87.94
40954;BME280;26686;50.130;8.710;2023-03-21T21:05:18;99968.16;;;11.69;88.54
40954;BME280;26686;50.130;8.710;2023-03-21T21:10:37;99953.59;;;11.63;87.96
40954;BME280;26686;50.130;8.710;2023-03-21T21:15:58;99959.28;;;11.59;87.65
40954;BME280;26686;50.130;8.710;2023-03-21T21:21:00;99960.25;;;11.48;87.36
40954;BME280;26686;50.130;8.710;2023-03-21T21:26:07;99964.91;;;11.46;87.20
40954;BME280;26686;50.130;8.710;2023-03-21T21:31:12;99975.84;;;11.43;87.68
40954;BME280;26686;50.130;8.710;2023-03-21T21:36:15;99972.00;;;11.36;87.25
40954;BME280;26686;50.130;8.710;2023-03-21T21:41:19;99965.00;;;11.35;87.19
40954;BME280;26686;50.130;8.710;2023-03-21T21:46:21;99959.50;;;11.26;87.37
40954;BME280;26686;50.130;8.710;2023-03-21T21:51:24;99963.59;;;11.30;87.13
40954;BME280;26686;50.130;8.710;2023-03-21T21:56:26;99951.09;;;11.31;87.34
40954;BME280;26686;50.130;8.710;2023-03-21T22:01:32;99942.22;;;11.21;87.87
40954;BME280;26686;50.130;8.710;2023-03-21T22:06:36;99952.59;;;11.14;88.08
40954;BME280;26686;50.130;8.710;2023-03-21T22:11:37;99946.28;;;11.15;88.29
40954;BME280;26686;50.130;8.710;2023-03-21T22:16:39;99941.81;;;11.16;88.04
40954;BME280;26686;50.130;8.710;2023-03-21T22:21:40;99934.91;;;11.13;88.12
40954;BME280;26686;50.130;8.710;2023-03-21T22:26:43;99935.06;;;11.11;88.21
40954;BME280;26686;50.130;8.710;2023-03-21T22:31:45;99940.78;;;11.07;88.64
40954;BME280;26686;50.130;8.710;2023-03-21T22:36:47;99926.75;;;11.05;88.37
40954;BME280;26686;50.130;8.710;2023-03-21T22:41:51;99932.34;;;11.02;88.40
40954;BME280;26686;50.130;8.710;2023-03-21T22:46:54;99931.66;;;11.00;88.46
40954;BME280;26686;50.130;8.710;2023-03-21T22:51:56;99933.16;;;10.92;88.44
40954;BME280;26686;50.130;8.710;2023-03-21T22:56:59;99935.38;;;10.87;88.81
40954;BME280;26686;50.130;8.710;2023-03-21T23:02:00;99931.72;;;10.88;88.57
40954;BME280;26686;50.130;8.710;2023-03-21T23:07:02;99930.59;;;10.81;88.72
40954;BME280;26686;50.130;8.710;2023-03-21T23:12:04;99939.13;;;10.75;88.44
40954;BME280;26686;50.130;8.710;2023-03-21T23:17:06;99930.94;;;10.67;88.63
40954;BME280;26686;50.130;8.710;2023-03-21T23:22:07;99926.31;;;10.69;88.77
40954;BME280;26686;50.130;8.710;2023-03-21T23:27:09;99924.63;;;10.68;89.86
40954;BME280;26686;50.130;8.710;2023-03-21T23:32:10;99926.63;;;10.75;89.82
40954;BME280;26686;50.130;8.710;2023-03-21T23:37:12;99923.13;;;10.75;90.06
40954;BME280;26686;50.130;8.710;2023-03-21T23:42:13;99929.88;;;10.79;90.03
40954;BME280;26686;50.130;8.710;2023-03-21T23:47:15;99918.53;;;10.77;90.30
40954;BME280;26686;50.130;8.710;2023-03-21T23:52:17;99914.44;;;10.73;90.21
40954;BME280;26686;50.130;8.710;2023-03-21T23:57:19;99915.16;;;10.75;90.06
